sensor_id;sensor_type;location;lat;lon;timestamp;pressure;altitude;pressure_sealevel;temperature;humidity
36828;BME280;22766;48.042;11.192;2023-05-11T00:01:32;94852.56;;;7.72;100.00
36828;BME280;22766;48.042;11.192;2023-05-11T00:03:59;94855.78;;;7.74;100.00
36828;BME280;22766;48.042;11.192;2023-05-11T00:06:26;94848.38;;;7.71;100.00
36828;BME280;22766;48.042;11.192;2023-05-11T00:08:53;94848.94;;;7.65;100.00
36828;BME280;22766;48.042;11.192;2023-05-11T00:11:19;94844.03;;;7.62;100.00
36828;BME280;22766;48.042;11.192;2023-05-11T00:13:46;94846.59;;;7.72;100.00
36828;BME280;22766;48.042;11.192;2023-05-11T00:16:13;94843.13;;;7.63;100.00
36828;BME280;22766;48.042;11.192;2023-05-11T00:18:40;94847.56;;;7.61;100.00
36828;BME280;22766;48.042;11.192;2023-05-11T00:21:07;94843.25;;;7.62;100.00
36828;BME280;22766;48.042;11.192;2023-05-11T00:23:34;94842.16;;;7.54;100.00
36828;BME280;22766;48.042;11.192;2023-05-11T00:26:00;94849.72;;;7.56;100.00
36828;BME280;22766;48.042;11.192;2023-05-11T00:28:27;94840.94;;;7.58;100.00
36828;BME280;22766;48.042;11.192;2023-05-11T00:30:55;94834.06;;;7.59;100.00
36828;BME280;22766;48.042;11.192;2023-05-11T00:33:23;94832.16;;;7.61;100.00
36828;BME280;22766;48.042;11.192;2023-05-11T00:35:50;94832.41;;;7.58;100.00
36828;BME280;22766;48.042;11.192;2023-05-11T00:38:17;94829.75;;;7.60;100.00
36828;BME280;22766;48.042;11.192;2023-05-11T00:40:44;94824.31;;;7.63;100.00
36828;BME280;22766;48.042;11.192;2023-05-11T00:43:10;94831.34;;;7.61;100.00
36828;BME280;22766;48.042;11.192;2023-05-11T00:45:37;94829.97;;;7.76;100.00
36828;BME280;22766;48.042;11.192;2023-05-11T00:48:06;94831.72;;;7.66;100.00
36828;BME280;22766;48.042;11.192;2023-05-11T00:50:34;94832.16;;;7.71;100.00
36828;BME280;22766;48.042;11.192;2023-05-11T00:53:01;94827.97;;;7.60;100.00
36828;BME280;22766;48.042;11.192;2023-05-11T00:55:29;94819.19;;;7.63;100.00
36828;BME280;22766;48.042;11.192;2023-05-11T00:57:56;94817.94;;;7.76;100.00
36828;BME280;22766;48.042;11.192;2023-05-11T01:00:23;94824.31;;;7.63;100.00
36828;BME280;22766;48.042;11.192;2023-05-11T01:02:50;94820.78;;;7.64;100.00
36828;BME280;22766;48.042;11.192;2023-05-11T01:05:17;94823.41;;;7.54;100.00
36828;BME280;22766;48.042;11.192;2023-05-11T01:13:23;94822.03;;;7.60;100.00
36828;BME280;22766;48.042;11.192;2023-05-11T01:15:54;94819.75;;;7.47;100.00
36828;BME280;22766;48.042;11.192;2023-05-11T01:18:37;94823.94;;;7.57;100.00
36828;BME280;22766;48.042;11.192;2023-05-11T01:21:10;94825.28;;;7.52;100.00
36828;BME280;22766;48.042;11.192;2023-05-11T01:23:43;94825.69;;;7.57;100.00
36828;BME280;22766;48.042;11.192;2023-05-11T01:31:37;94812.44;;;7.52;100.00
36828;BME280;22766;48.042;11.192;2023-05-11T01:34:12;94817.59;;;7.52;100.00
36828;BME280;22766;48.042;11.192;2023-05-11T01:36:51;94813.38;;;7.51;100.00
36828;BME280;22766;48.042;11.192;2023-05-11T01:39:22;94815.72;;;7.44;100.00
36828;BME280;22766;48.042;11.192;2023-05-11T01:41:52;94816.50;;;7.45;100.00
36828;BME280;22766;48.042;11.192;2023-05-11T01:44:24;94812.56;;;7.50;100.00
36828;BME280;22766;48.042;11.192;2023-05-11T01:46:55;94818.69;;;7.40;100.00
36828;BME280;22766;48.042;11.192;2023-05-11T01:49:23;94815.44;;;7.38;100.00
36828;BME280;22766;48.042;11.192;2023-05-11T01:51:50;94815.97;;;7.32;100.00
36828;BME280;22766;48.042;11.192;2023-05-11T01:54:19;94819.22;;;7.43;100.00
36828;BME280;22766;48.042;11.192;2023-05-11T01:56:47;94812.19;;;7.45;100.00
36828;BME280;22766;48.042;11.192;2023-05-11T01:59:16;94815.03;;;7.42;100.00
36828;BME280;22766;48.042;11.192;2023-05-11T02:01:44;94820.44;;;7.39;100.00
36828;BME280;22766;48.042;11.192;2023-05-11T02:04:13;94816.94;;;7.40;100.00
36828;BME280;22766;48.042;11.192;2023-05-11T02:06:41;94819.34;;;7.32;100.00
36828;BME280;22766;48.042;11.192;2023-05-11T02:09:10;94821.94;;;7.32;100.00
36828;BME280;22766;48.042;11.192;2023-05-11T02:11:39;94813.56;;;7.30;100.00
36828;BME280;22766;48.042;11.192;2023-05-11T02:14:08;94822.63;;;7.25;100.00
36828;BME280;22766;48.042;11.192;2023-05-11T02:16:36;94817.06;;;7.29;100.00
36828;BME280;22766;48.042;11.192;2023-05-11T02:19:06;94818.16;;;7.27;100.00
36828;BME280;22766;48.042;11.192;2023-05-11T02:21:35;94815.97;;;7.22;100.00
36828;BME280;22766;48.042;11.192;2023-05-11T02:24:04;94808.28;;;7.22;100.00
36828;BME280;22766;48.042;11.192;2023-05-11T02:26:32;94809.78;;;7.25;100.00
36828;BME280;22766;48.042;11.192;2023-05-11T02:28:59;94809.25;;;7.21;100.00
36828;BME280;22766;48.042;11.192;2023-05-11T02:31:28;94809.25;;;7.21;100.00
36828;BME280;22766;48.042;11.192;2023-05-11T02:34:05;94800.72;;;7.11;100.00
36828;BME280;22766;48.042;11.192;2023-05-11T02:36:36;94802.47;;;7.11;100.00
36828;BME280;22766;48.042;11.192;2023-05-11T02:39:06;94797.34;;;7.11;100.00
36828;BME280;22766;48.042;11.192;2023-05-11T02:41:38;94807.47;;;7.12;100.00
36828;BME280;22766;48.042;11.192;2023-05-11T02:44:11;94806.41;;;7.15;100.00
36828;BME280;22766;48.042;11.192;2023-05-11T02:46:40;94805.84;;;7.21;100.00
36828;BME280;22766;48.042;11.192;2023-05-11T02:49:09;94802.47;;;7.20;100.00
36828;BME280;22766;48.042;11.192;2023-05-11T02:51:38;94805.19;;;7.19;100.00
36828;BME280;22766;48.042;11.192;2023-05-11T02:54:08;94805.84;;;7.21;100.00
36828;BME280;22766;48.042;11.192;2023-05-11T02:56:40;94808.03;;;7.25;100.00
36828;BME280;22766;48.042;11.192;2023-05-11T02:59:07;94814.22;;;7.23;100.00
36828;BME280;22766;48.042;11.192;2023-05-11T03:01:35;94806.81;;;7.20;100.00
36828;BME280;22766;48.042;11.192;2023-05-11T03:04:03;94811.94;;;7.20;100.00
36828;BME280;22766;48.042;11.192;2023-05-11T03:06:31;94814.22;;;7.32;100.00
36828;BME280;22766;48.042;11.192;2023-05-11T03:09:00;94806.00;;;7.19;100.00
36828;BME280;22766;48.042;11.192;2023-05-11T03:11:29;94798.44;;;7.18;100.00
36828;BME280;22766;48.042;11.192;2023-05-11T03:13:56;94797.47;;;7.09;100.00
36828;BME280;22766;48.042;11.192;2023-05-11T03:16:24;94801.13;;;7.16;100.00
36828;BME280;22766;48.042;11.192;2023-05-11T03:18:53;94799.13;;;7.10;100.00
36828;BME280;22766;48.042;11.192;2023-05-11T03:21:22;94797.88;;;7.05;100.00
36828;BME280;22766;48.042;11.192;2023-05-11T03:23:50;94803.81;;;7.05;100.00
36828;BME280;22766;48.042;11.192;2023-05-11T03:26:18;94802.63;;;7.00;100.00
36828;BME280;22766;48.042;11.192;2023-05-11T03:28:47;94799.66;;;6.95;100.00
36828;BME280;22766;48.042;11.192;2023-05-11T03:31:17;94803.69;;;6.97;100.00
36828;BME280;22766;48.042;11.192;2023-05-11T03:33:44;94795.19;;;6.87;100.00
36828;BME280;22766;48.042;11.192;2023-05-11T03:36:11;94803.28;;;6.83;100.00
36828;BME280;22766;48.042;11.192;2023-05-11T03:38:39;94797.91;;;6.86;100.00
36828;BME280;22766;48.042;11.192;2023-05-11T03:41:13;94789.25;;;6.77;100.00
36828;BME280;22766;48.042;11.192;2023-05-11T03:43:44;94793.56;;;6.86;100.00
36828;BME280;22766;48.042;11.192;2023-05-11T03:46:19;94783.03;;;6.80;100.00
36828;BME280;22766;48.042;11.192;2023-05-11T03:48:47;94788.97;;;6.80;100.00
36828;BME280;22766;48.042;11.192;2023-05-11T03:51:18;94785.84;;;6.77;100.00
36828;BME280;22766;48.042;11.192;2023-05-11T03:53:45;94786.97;;;6.74;100.00
36828;BME280;22766;48.042;11.192;2023-05-11T03:56:12;94782.34;;;6.68;100.00
36828;BME280;22766;48.042;11.192;2023-05-11T03:58:40;94783.03;;;6.70;100.00
36828;BME280;22766;48.042;11.192;2023-05-11T04:01:07;94783.72;;;6.72;100.00
36828;BME280;22766;48.042;11.192;2023-05-11T04:03:51;94782.22;;;6.70;100.00
36828;BME280;22766;48.042;11.192;2023-05-11T04:06:18;94778.97;;;6.68;100.00
36828;BME280;22766;48.042;11.192;2023-05-11T04:08:51;94782.22;;;6.89;100.00
36828;BME280;22766;48.042;11.192;2023-05-11T04:11:18;94780.72;;;6.77;100.00
36828;BME280;22766;48.042;11.192;2023-05-11T04:13:44;94778.03;;;6.88;100.00
36828;BME280;22766;48.042;11.192;2023-05-11T04:16:11;94782.38;;;6.78;100.00
36828;BME280;22766;48.042;11.192;2023-05-11T04:18:38;94782.91;;;6.72;100.00
36828;BME280;22766;48.042;11.192;2023-05-11T04:21:05;94786.13;;;6.74;100.00
36828;BME280;22766;48.042;11.192;2023-05-11T04:23:32;94786.00;;;6.66;100.00
36828;BME280;22766;48.042;11.192;2023-05-11T04:25:59;94784.50;;;6.63;100.00
36828;BME280;22766;48.042;11.192;2023-05-11T04:28:25;94784.25;;;6.66;100.00
36828;BME280;22766;48.042;11.192;2023-05-11T04:30:54;94788.03;;;6.72;100.00
36828;BME280;22766;48.042;11.192;2023-05-11T04:33:22;94786.53;;;6.69;100.00
36828;BME280;22766;48.042;11.192;2023-05-11T04:35:50;94780.31;;;6.62;100.00
36828;BME280;22766;48.042;11.192;2023-05-11T04:38:18;94784.09;;;6.68;100.00
36828;BME280;22766;48.042;11.192;2023-05-11T04:40:45;94785.31;;;6.63;100.00
36828;BME280;22766;48.042;11.192;2023-05-11T04:43:14;94786.28;;;6.72;100.00
36828;BME280;22766;48.042;11.192;2023-05-11T04:45:46;94789.63;;;6.82;100.00
36828;BME280;22766;48.042;11.192;2023-05-11T04:48:13;94790.84;;;6.78;100.00
36828;BME280;22766;48.042;11.192;2023-05-11T04:50:40;94792.88;;;6.84;100.00
36828;BME280;22766;48.042;11.192;2023-05-11T04:53:07;94789.38;;;6.76;100.00
36828;BME280;22766;48.042;11.192;2023-05-11T04:55:34;94789.53;;;6.84;100.00
36828;BME280;22766;48.042;11.192;2023-05-11T04:58:00;94788.19;;;6.80;100.00
36828;BME280;22766;48.042;11.192;2023-05-11T05:00:27;94790.31;;;6.84;100.00
36828;BME280;22766;48.042;11.192;2023-05-11T05:02:54;94791.28;;;6.83;100.00
36828;BME280;22766;48.042;11.192;2023-05-11T05:05:21;94784.66;;;6.81;100.00
36828;BME280;22766;48.042;11.192;2023-05-11T05:07:48;94784.94;;;6.78;100.00
36828;BME280;22766;48.042;11.192;2023-05-11T05:10:15;94782.75;;;6.73;100.00
36828;BME280;22766;48.042;11.192;2023-05-11T05:12:42;94790.22;;;6.76;100.00
36828;BME280;22766;48.042;11.192;2023-05-11T05:15:09;94790.59;;;6.81;100.00
36828;BME280;22766;48.042;11.192;2023-05-11T05:17:36;94791.81;;;6.87;100.00
36828;BME280;22766;48.042;11.192;2023-05-11T05:20:28;94791.44;;;6.91;100.00
36828;BME280;22766;48.042;11.192;2023-05-11T05:22:54;94786.28;;;6.82;100.00
36828;BME280;22766;48.042;11.192;2023-05-11T05:25:22;94787.34;;;6.89;100.00
36828;BME280;22766;48.042;11.192;2023-05-11T05:27:48;94790.75;;;6.89;100.00
36828;BME280;22766;48.042;11.192;2023-05-11T05:30:17;94788.19;;;6.99;100.00
36828;BME280;22766;48.042;11.192;2023-05-11T05:32:45;94791.00;;;6.96;100.00
36828;BME280;22766;48.042;11.192;2023-05-11T05:35:12;94800.19;;;6.89;100.00
36828;BME280;22766;48.042;11.192;2023-05-11T05:37:40;94801.25;;;6.86;100.00
36828;BME280;22766;48.042;11.192;2023-05-11T05:40:07;94806.16;;;6.89;100.00
36828;BME280;22766;48.042;11.192;2023-05-11T05:42:40;94798.03;;;6.84;100.00
36828;BME280;22766;48.042;11.192;2023-05-11T05:45:09;94805.31;;;6.89;100.00
36828;BME280;22766;48.042;11.192;2023-05-11T05:47:39;94801.78;;;6.90;100.00
36828;BME280;22766;48.042;11.192;2023-05-11T05:50:07;94794.66;;;6.93;100.00
36828;BME280;22766;48.042;11.192;2023-05-11T05:52:34;94793.84;;;7.02;100.00
36828;BME280;22766;48.042;11.192;2023-05-11T05:55:01;94800.34;;;6.97;100.00
36828;BME280;22766;48.042;11.192;2023-05-11T05:57:28;94801.69;;;6.91;100.00
36828;BME280;22766;48.042;11.192;2023-05-11T05:59:56;94799.13;;;6.91;100.00
36828;BME280;22766;48.042;11.192;2023-05-11T06:02:23;94794.91;;;7.00;100.00
36828;BME280;22766;48.042;11.192;2023-05-11T06:04:50;94792.22;;;7.01;100.00
36828;BME280;22766;48.042;11.192;2023-05-11T06:07:16;94796.66;;;6.99;100.00
36828;BME280;22766;48.042;11.192;2023-05-11T06:09:43;94794.78;;;6.92;100.00
36828;BME280;22766;48.042;11.192;2023-05-11T06:12:10;94794.53;;;6.95;100.00
36828;BME280;22766;48.042;11.192;2023-05-11T06:14:41;94796.41;;;6.93;100.00
36828;BME280;22766;48.042;11.192;2023-05-11T06:17:08;94800.06;;;7.00;100.00
36828;BME280;22766;48.042;11.192;2023-05-11T06:19:35;94808.28;;;6.94;100.00
36828;BME280;22766;48.042;11.192;2023-05-11T06:22:02;94805.03;;;7.01;100.00
36828;BME280;22766;48.042;11.192;2023-05-11T06:24:33;94801.25;;;7.05;100.00
36828;BME280;22766;48.042;11.192;2023-05-11T06:26:59;94803.97;;;7.13;100.00
36828;BME280;22766;48.042;11.192;2023-05-11T06:29:26;94793.84;;;7.12;100.00
36828;BME280;22766;48.042;11.192;2023-05-11T06:31:53;94802.06;;;7.15;100.00
36828;BME280;22766;48.042;11.192;2023-05-11T06:34:22;94805.47;;;7.16;100.00
36828;BME280;22766;48.042;11.192;2023-05-11T06:36:49;94805.03;;;7.11;100.00
36828;BME280;22766;48.042;11.192;2023-05-11T06:39:17;94803.28;;;7.11;100.00
36828;BME280;22766;48.042;11.192;2023-05-11T06:41:43;94805.72;;;7.13;100.00
36828;BME280;22766;48.042;11.192;2023-05-11T06:44:10;94805.19;;;7.19;100.00
36828;BME280;22766;48.042;11.192;2023-05-11T06:46:42;94800.59;;;7.13;100.00
36828;BME280;22766;48.042;11.192;2023-05-11T06:49:08;94796.13;;;7.15;100.00
36828;BME280;22766;48.042;11.192;2023-05-11T06:51:35;94801.53;;;7.21;100.00
36828;BME280;22766;48.042;11.192;2023-05-11T06:54:02;94794.78;;;7.11;100.00
36828;BME280;22766;48.042;11.192;2023-05-11T06:56:29;94798.69;;;7.15;100.00
36828;BME280;22766;48.042;11.192;2023-05-11T06:58:57;94794.63;;;7.22;100.00
36828;BME280;22766;48.042;11.192;2023-05-11T07:01:24;94800.56;;;7.22;100.00
36828;BME280;22766;48.042;11.192;2023-05-11T07:03:53;94792.72;;;7.33;100.00
36828;BME280;22766;48.042;11.192;2023-05-11T07:06:20;94794.88;;;7.38;100.00
36828;BME280;22766;48.042;11.192;2023-05-11T07:08:47;94802.88;;;7.25;100.00
36828;BME280;22766;48.042;11.192;2023-05-11T07:11:13;94796.41;;;7.31;100.00
36828;BME280;22766;48.042;11.192;2023-05-11T07:13:41;94798.44;;;7.27;100.00
36828;BME280;22766;48.042;11.192;2023-05-11T07:16:07;94794.50;;;7.33;100.00
36828;BME280;22766;48.042;11.192;2023-05-11T07:18:34;94801.78;;;7.37;100.00
36828;BME280;22766;48.042;11.192;2023-05-11T07:21:01;94799.19;;;7.37;100.00
36828;BME280;22766;48.042;11.192;2023-05-11T07:23:27;94803.81;;;7.34;100.00
36828;BME280;22766;48.042;11.192;2023-05-11T07:25:54;94805.16;;;7.38;100.00
36828;BME280;22766;48.042;11.192;2023-05-11T07:28:23;94795.72;;;7.38;100.00
36828;BME280;22766;48.042;11.192;2023-05-11T07:30:49;94804.75;;;7.42;100.00
36828;BME280;22766;48.042;11.192;2023-05-11T07:33:16;94803.78;;;7.53;100.00
36828;BME280;22766;48.042;11.192;2023-05-11T07:35:43;94802.56;;;7.47;100.00
36828;BME280;22766;48.042;11.192;2023-05-11T07:38:09;94797.28;;;7.58;100.00
36828;BME280;22766;48.042;11.192;2023-05-11T07:40:37;94796.06;;;7.63;100.00
36828;BME280;22766;48.042;11.192;2023-05-11T07:43:04;94799.69;;;7.60;100.00
36828;BME280;22766;48.042;11.192;2023-05-11T07:45:30;94802.84;;;7.54;100.00
36828;BME280;22766;48.042;11.192;2023-05-11T07:47:57;94805.50;;;7.62;100.00
36828;BME280;22766;48.042;11.192;2023-05-11T07:50:24;94811.16;;;7.75;100.00
36828;BME280;22766;48.042;11.192;2023-05-11T07:52:51;94803.41;;;7.85;100.00
36828;BME280;22766;48.042;11.192;2023-05-11T07:55:18;94798.84;;;7.79;100.00
36828;BME280;22766;48.042;11.192;2023-05-11T07:57:46;94803.75;;;7.63;100.00
36828;BME280;22766;48.042;11.192;2023-05-11T08:00:13;94797.94;;;7.61;100.00
36828;BME280;22766;48.042;11.192;2023-05-11T08:02:39;94796.59;;;7.56;100.00
36828;BME280;22766;48.042;11.192;2023-05-11T08:05:07;94798.06;;;7.69;100.00
36828;BME280;22766;48.042;11.192;2023-05-11T08:07:34;94798.84;;;7.79;100.00
36828;BME280;22766;48.042;11.192;2023-05-11T08:10:00;94804.25;;;7.76;100.00
36828;BME280;22766;48.042;11.192;2023-05-11T08:12:27;94803.19;;;7.78;100.00
36828;BME280;22766;48.042;11.192;2023-05-11T08:14:54;94803.28;;;7.86;100.00
36828;BME280;22766;48.042;11.192;2023-05-11T08:17:20;94802.59;;;7.94;100.00
36828;BME280;22766;48.042;11.192;2023-05-11T08:19:47;94798.31;;;8.12;100.00
36828;BME280;22766;48.042;11.192;2023-05-11T08:22:14;94798.16;;;8.13;100.00
36828;BME280;22766;48.042;11.192;2023-05-11T08:24:41;94801.50;;;8.23;100.00
36828;BME280;22766;48.042;11.192;2023-05-11T08:27:07;94796.19;;;8.34;100.00
36828;BME280;22766;48.042;11.192;2023-05-11T08:29:34;94788.94;;;8.30;100.00
36828;BME280;22766;48.042;11.192;2023-05-11T08:32:01;94794.44;;;8.35;100.00
36828;BME280;22766;48.042;11.192;2023-05-11T08:34:27;94795.00;;;8.29;100.00
36828;BME280;22766;48.042;11.192;2023-05-11T08:36:54;94791.56;;;8.38;100.00
36828;BME280;22766;48.042;11.192;2023-05-11T08:39:21;94794.16;;;8.38;100.00
36828;BME280;22766;48.042;11.192;2023-05-11T08:42:08;94791.50;;;8.30;100.00
36828;BME280;22766;48.042;11.192;2023-05-11T08:44:36;94795.22;;;8.45;100.00
36828;BME280;22766;48.042;11.192;2023-05-11T08:47:04;94790.41;;;8.23;100.00
36828;BME280;22766;48.042;11.192;2023-05-11T08:49:49;94794.75;;;8.32;100.00
36828;BME280;22766;48.042;11.192;2023-05-11T08:52:17;94788.06;;;8.39;100.00
36828;BME280;22766;48.042;11.192;2023-05-11T08:54:45;94790.28;;;8.52;100.00
36828;BME280;22766;48.042;11.192;2023-05-11T08:57:12;94790.47;;;8.40;100.00
36828;BME280;22766;48.042;11.192;2023-05-11T08:59:41;94792.03;;;8.24;100.00
36828;BME280;22766;48.042;11.192;2023-05-11T09:02:13;94793.94;;;8.31;100.00
36828;BME280;22766;48.042;11.192;2023-05-11T09:04:41;94795.25;;;8.35;100.00
36828;BME280;22766;48.042;11.192;2023-05-11T09:07:16;94794.59;;;8.51;100.00
36828;BME280;22766;48.042;11.192;2023-05-11T09:09:45;94794.91;;;8.48;100.00
36828;BME280;22766;48.042;11.192;2023-05-11T09:12:12;94798.72;;;8.44;100.00
36828;BME280;22766;48.042;11.192;2023-05-11T09:14:39;94796.59;;;8.39;100.00
36828;BME280;22766;48.042;11.192;2023-05-11T09:17:06;94795.66;;;8.58;100.00
36828;BME280;22766;48.042;11.192;2023-05-11T09:19:33;94793.97;;;8.49;100.00
36828;BME280;22766;48.042;11.192;2023-05-11T09:21:59;94788.63;;;8.60;100.00
36828;BME280;22766;48.042;11.192;2023-05-11T09:24:26;94792.72;;;8.71;100.00
36828;BME280;22766;48.042;11.192;2023-05-11T09:27:08;94794.31;;;8.81;100.00
36828;BME280;22766;48.042;11.192;2023-05-11T09:29:35;94795.75;;;9.01;100.00
36828;BME280;22766;48.042;11.192;2023-05-11T09:32:02;94785.03;;;8.88;100.00
36828;BME280;22766;48.042;11.192;2023-05-11T09:34:28;94792.59;;;8.90;100.00
36828;BME280;22766;48.042;11.192;2023-05-11T09:36:55;94785.38;;;9.11;100.00
36828;BME280;22766;48.042;11.192;2023-05-11T09:39:33;94790.22;;;9.14;100.00
36828;BME280;22766;48.042;11.192;2023-05-11T09:42:17;94788.47;;;9.14;100.00
36828;BME280;22766;48.042;11.192;2023-05-11T09:44:45;94785.00;;;9.23;100.00
36828;BME280;22766;48.042;11.192;2023-05-11T09:47:13;94783.38;;;9.40;100.00
36828;BME280;22766;48.042;11.192;2023-05-11T09:49:44;94783.38;;;9.40;100.00
36828;BME280;22766;48.042;11.192;2023-05-11T09:52:15;94774.31;;;9.36;100.00
36828;BME280;22766;48.042;11.192;2023-05-11T09:54:47;94789.47;;;9.39;100.00
36828;BME280;22766;48.042;11.192;2023-05-11T09:57:30;94785.47;;;9.44;100.00
36828;BME280;22766;48.042;11.192;2023-05-11T09:59:58;94781.16;;;9.27;100.00
36828;BME280;22766;48.042;11.192;2023-05-11T10:02:31;94784.47;;;9.37;100.00
36828;BME280;22766;48.042;11.192;2023-05-11T10:05:00;94786.25;;;9.19;100.00
36828;BME280;22766;48.042;11.192;2023-05-11T10:07:33;94780.06;;;9.30;100.00
36828;BME280;22766;48.042;11.192;2023-05-11T10:10:05;94779.41;;;9.10;100.00
36828;BME280;22766;48.042;11.192;2023-05-11T10:12:36;94772.75;;;9.17;100.00
36828;BME280;22766;48.042;11.192;2023-05-11T10:15:43;94774.66;;;9.15;100.00
36828;BME280;22766;48.042;11.192;2023-05-11T10:18:09;94779.94;;;9.14;100.00
36828;BME280;22766;48.042;11.192;2023-05-11T10:20:37;94774.03;;;9.21;100.00
36828;BME280;22766;48.042;11.192;2023-05-11T10:23:04;94772.81;;;9.08;100.00
36828;BME280;22766;48.042;11.192;2023-05-11T10:25:32;94769.94;;;9.11;100.00
36828;BME280;22766;48.042;11.192;2023-05-11T10:27:59;94766.28;;;8.96;100.00
36828;BME280;22766;48.042;11.192;2023-05-11T10:30:26;94772.75;;;9.00;100.00
36828;BME280;22766;48.042;11.192;2023-05-11T10:32:54;94768.09;;;9.03;100.00
36828;BME280;22766;48.042;11.192;2023-05-11T10:35:21;94770.09;;;9.09;100.00
36828;BME280;22766;48.042;11.192;2023-05-11T10:37:49;94765.97;;;8.99;100.00
36828;BME280;22766;48.042;11.192;2023-05-11T10:40:15;94767.78;;;9.06;100.00
36828;BME280;22766;48.042;11.192;2023-05-11T10:54:07;94756.72;;;9.06;100.00
36828;BME280;22766;48.042;11.192;2023-05-11T10:56:57;94751.41;;;9.07;100.00
36828;BME280;22766;48.042;11.192;2023-05-11T11:02:03;94759.19;;;9.15;100.00
36828;BME280;22766;48.042;11.192;2023-05-11T11:07:10;94757.03;;;9.28;100.00
36828;BME280;22766;48.042;11.192;2023-05-11T11:09:54;94753.25;;;9.40;100.00
36828;BME280;22766;48.042;11.192;2023-05-11T11:12:25;94750.53;;;9.42;100.00
36828;BME280;22766;48.042;11.192;2023-05-11T11:15:02;94747.31;;;9.48;100.00
36828;BME280;22766;48.042;11.192;2023-05-11T11:17:31;94749.81;;;9.58;100.00
36828;BME280;22766;48.042;11.192;2023-05-11T11:19:59;94747.63;;;9.71;100.00
36828;BME280;22766;48.042;11.192;2023-05-11T11:25:08;94741.88;;;9.51;100.00
36828;BME280;22766;48.042;11.192;2023-05-11T11:30:15;94747.25;;;9.32;100.00
36828;BME280;22766;48.042;11.192;2023-05-11T11:32:43;94742.75;;;9.34;100.00
36828;BME280;22766;48.042;11.192;2023-05-11T11:38:08;94742.50;;;9.45;100.00
36828;BME280;22766;48.042;11.192;2023-05-11T11:40:35;94739.97;;;9.53;100.00
36828;BME280;22766;48.042;11.192;2023-05-11T11:43:17;94748.59;;;9.44;100.00
36828;BME280;22766;48.042;11.192;2023-05-11T11:45:58;94744.91;;;9.47;100.00
36828;BME280;22766;48.042;11.192;2023-05-11T11:48:36;94750.72;;;9.49;100.00
36828;BME280;22766;48.042;11.192;2023-05-11T11:51:11;94744.31;;;9.53;100.00
36828;BME280;22766;48.042;11.192;2023-05-11T12:03:43;94747.03;;;9.25;100.00
36828;BME280;22766;48.042;11.192;2023-05-11T12:06:13;94742.38;;;9.29;100.00
36828;BME280;22766;48.042;11.192;2023-05-11T12:08:40;94744.81;;;9.30;100.00
36828;BME280;22766;48.042;11.192;2023-05-11T12:11:08;94743.56;;;9.34;100.00
36828;BME280;22766;48.042;11.192;2023-05-11T12:13:34;94749.06;;;9.39;100.00
36828;BME280;22766;48.042;11.192;2023-05-11T12:16:14;94745.72;;;9.47;100.00
36828;BME280;22766;48.042;11.192;2023-05-11T12:18:51;94739.75;;;9.47;100.00
36828;BME280;22766;48.042;11.192;2023-05-11T12:21:20;94739.91;;;9.45;100.00
36828;BME280;22766;48.042;11.192;2023-05-11T12:23:54;94736.19;;;9.39;100.00
36828;BME280;22766;48.042;11.192;2023-05-11T12:26:22;94737.03;;;9.48;100.00
36828;BME280;22766;48.042;11.192;2023-05-11T12:28:50;94739.66;;;9.56;100.00
36828;BME280;22766;48.042;11.192;2023-05-11T12:31:17;94737.53;;;9.77;100.00
36828;BME280;22766;48.042;11.192;2023-05-11T12:33:49;94732.88;;;9.81;100.00
36828;BME280;22766;48.042;11.192;2023-05-11T12:36:16;94735.66;;;9.87;100.00
36828;BME280;22766;48.042;11.192;2023-05-11T12:38:47;94734.72;;;9.96;100.00
36828;BME280;22766;48.042;11.192;2023-05-11T12:41:18;94734.84;;;9.87;100.00
36828;BME280;22766;48.042;11.192;2023-05-11T12:43:52;94742.03;;;9.75;100.00
36828;BME280;22766;48.042;11.192;2023-05-11T12:46:20;94733.84;;;9.80;100.00
36828;BME280;22766;48.042;11.192;2023-05-11T12:48:49;94726.06;;;9.72;100.00
36828;BME280;22766;48.042;11.192;2023-05-11T12:51:45;94725.25;;;9.71;100.00
36828;BME280;22766;48.042;11.192;2023-05-11T12:56:51;94725.00;;;9.90;100.00
36828;BME280;22766;48.042;11.192;2023-05-11T12:59:37;94716.66;;;9.96;100.00
36828;BME280;22766;48.042;11.192;2023-05-11T13:02:18;94720.94;;;10.13;100.00
36828;BME280;22766;48.042;11.192;2023-05-11T13:04:47;94718.25;;;9.97;100.00
36828;BME280;22766;48.042;11.192;2023-05-11T13:07:23;94723.66;;;9.78;100.00
36828;BME280;22766;48.042;11.192;2023-05-11T13:09:57;94716.75;;;9.79;100.00
36828;BME280;22766;48.042;11.192;2023-05-11T13:12:24;94719.09;;;9.64;100.00
36828;BME280;22766;48.042;11.192;2023-05-11T13:15:05;94707.16;;;9.63;100.00
36828;BME280;22766;48.042;11.192;2023-05-11T13:17:34;94707.09;;;9.81;100.00
36828;BME280;22766;48.042;11.192;2023-05-11T13:22:48;94702.94;;;9.96;100.00
36828;BME280;22766;48.042;11.192;2023-05-11T13:25:18;94703.31;;;10.01;100.00
36828;BME280;22766;48.042;11.192;2023-05-11T13:27:46;94699.91;;;10.00;100.00
36828;BME280;22766;48.042;11.192;2023-05-11T13:30:13;94706.06;;;10.07;100.00
36828;BME280;22766;48.042;11.192;2023-05-11T13:32:40;94696.06;;;10.04;100.00
36828;BME280;22766;48.042;11.192;2023-05-11T13:35:07;94705.13;;;10.08;100.00
36828;BME280;22766;48.042;11.192;2023-05-11T13:37:34;94696.69;;;9.98;100.00
36828;BME280;22766;48.042;11.192;2023-05-11T13:40:00;94698.44;;;9.98;100.00
36828;BME280;22766;48.042;11.192;2023-05-11T13:42:27;94696.69;;;9.98;100.00
36828;BME280;22766;48.042;11.192;2023-05-11T13:44:54;94695.75;;;10.07;100.00
36828;BME280;22766;48.042;11.192;2023-05-11T13:47:21;94699.84;;;10.26;100.00
36828;BME280;22766;48.042;11.192;2023-05-11T13:49:47;94706.34;;;10.38;100.00
36828;BME280;22766;48.042;11.192;2023-05-11T13:52:14;94701.66;;;10.33;100.00